createdAt,value
2022-10-04T00:01:52.511Z,11.90
2022-10-04T00:04:39.496Z,12.00
2022-10-04T00:07:26.387Z,11.90
2022-10-04T00:10:23.093Z,11.90
2022-10-04T00:13:04.233Z,11.90
2022-10-04T00:15:38.157Z,11.90
2022-10-04T00:18:32.314Z,11.90
2022-10-04T00:21:06.119Z,11.80
2022-10-04T00:23:38.565Z,11.70
2022-10-04T00:26:43.098Z,11.60
2022-10-04T00:29:32.202Z,11.60
2022-10-04T00:32:10.527Z,11.60
2022-10-04T00:34:51.154Z,11.60
2022-10-04T00:37:23.647Z,11.60
2022-10-04T00:40:13.467Z,11.50
2022-10-04T00:43:18.100Z,11.30
2022-10-04T00:45:59.492Z,11.20
2022-10-04T00:48:50.282Z,11.10
2022-10-04T00:51:26.982Z,11.10
2022-10-04T00:54:33.305Z,11.10
2022-10-04T00:57:22.696Z,11.10
2022-10-04T01:00:21.498Z,11.00
2022-10-04T01:03:21.147Z,10.90
2022-10-04T01:05:59.654Z,10.90
2022-10-04T01:08:45.614Z,10.90
2022-10-04T01:11:30.758Z,10.80
2022-10-04T01:14:57.680Z,10.70
2022-10-04T01:17:27.168Z,10.70
2022-10-04T01:19:57.272Z,10.80
2022-10-04T01:22:50.681Z,10.80
2022-10-04T01:25:51.138Z,10.90
2022-10-04T01:28:20.793Z,11.10
2022-10-04T01:30:50.421Z,11.10
2022-10-04T01:33:19.983Z,11.10
2022-10-04T01:35:49.626Z,11.20
2022-10-04T01:38:19.229Z,11.40
2022-10-04T01:41:03.162Z,11.40
2022-10-04T01:43:42.862Z,11.50
2022-10-04T01:46:29.156Z,11.60
2022-10-04T01:49:05.549Z,11.60
2022-10-04T01:51:44.084Z,11.70
2022-10-04T01:54:25.661Z,11.70
2022-10-04T01:57:24.025Z,11.70
2022-10-04T02:00:01.830Z,11.70
2022-10-04T02:02:57.178Z,11.70
2022-10-04T02:06:00.219Z,11.70
2022-10-04T02:08:34.863Z,11.70
2022-10-04T02:11:06.792Z,11.70
2022-10-04T02:13:41.383Z,11.70
2022-10-04T02:16:12.622Z,11.70
2022-10-04T02:18:44.288Z,11.70
2022-10-04T02:21:16.587Z,11.70
2022-10-04T02:23:47.671Z,11.70
2022-10-04T02:26:17.183Z,11.60
2022-10-04T02:28:46.785Z,11.40
2022-10-04T02:31:42.210Z,11.20
2022-10-04T02:34:12.697Z,11.00
2022-10-04T02:36:42.382Z,10.80
2022-10-04T02:39:28.974Z,10.70
2022-10-04T02:42:09.250Z,10.60
2022-10-04T02:44:58.717Z,10.40
2022-10-04T02:47:50.131Z,10.30
2022-10-04T02:50:36.270Z,10.20
2022-10-04T02:53:30.611Z,10.20
2022-10-04T02:56:05.942Z,10.10
2022-10-04T02:58:39.689Z,10.10
2022-10-04T03:01:26.690Z,10.10
2022-10-04T03:03:58.369Z,10.10
2022-10-04T03:06:32.957Z,10.10
2022-10-04T03:09:06.092Z,10.10
2022-10-04T03:11:40.805Z,10.10
2022-10-04T03:14:20.497Z,10.20
2022-10-04T03:16:59.089Z,10.30
2022-10-04T03:19:32.458Z,10.40
2022-10-04T03:22:10.431Z,10.60
2022-10-04T03:24:53.541Z,10.70
2022-10-04T03:27:36.312Z,10.80
2022-10-04T03:30:06.846Z,10.90
2022-10-04T03:32:36.603Z,10.90
2022-10-04T03:35:32.564Z,11.00
2022-10-04T03:38:09.083Z,11.00
2022-10-04T03:40:53.108Z,11.10
2022-10-04T03:43:34.747Z,11.20
2022-10-04T03:46:06.429Z,11.20
2022-10-04T03:48:53.401Z,11.10
2022-10-04T03:51:27.393Z,10.90
2022-10-04T03:54:01.372Z,10.90
2022-10-04T03:56:37.050Z,10.90
2022-10-04T03:59:07.610Z,11.10
2022-10-04T04:02:06.906Z,11.20
2022-10-04T04:04:53.651Z,11.30
2022-10-04T04:07:45.884Z,11.30
2022-10-04T04:10:50.515Z,11.40
2022-10-04T04:13:51.040Z,11.40
2022-10-04T04:16:26.396Z,11.40
2022-10-04T04:19:02.786Z,11.40
2022-10-04T04:21:33.352Z,11.50
2022-10-04T04:24:18.209Z,11.50
2022-10-04T04:26:56.403Z,11.40
2022-10-04T04:29:52.646Z,11.40
2022-10-04T04:32:41.623Z,11.30
2022-10-04T04:35:36.434Z,11.00
2022-10-04T04:38:23.302Z,11.00
2022-10-04T04:40:57.530Z,10.90
2022-10-04T04:43:28.318Z,10.80
2022-10-04T04:46:22.359Z,10.80
2022-10-04T04:48:53.692Z,10.80
2022-10-04T04:51:26.400Z,10.70
2022-10-04T04:53:57.101Z,10.70
2022-10-04T04:56:30.354Z,10.70
2022-10-04T04:59:04.934Z,10.70
2022-10-04T05:01:41.868Z,10.70
2022-10-04T05:04:14.257Z,10.60
2022-10-04T05:07:19.766Z,10.60
2022-10-04T05:09:49.158Z,10.60
2022-10-04T05:12:24.212Z,10.60
2022-10-04T05:14:56.885Z,10.70
2022-10-04T05:17:35.207Z,10.70
2022-10-04T05:20:06.084Z,10.70
2022-10-04T05:22:45.651Z,10.80
2022-10-04T05:25:33.513Z,10.80
2022-10-04T05:28:03.057Z,10.80
2022-10-04T05:30:53.930Z,10.90
2022-10-04T05:34:02.297Z,11.00
2022-10-04T05:36:46.729Z,11.20
2022-10-04T05:39:29.342Z,11.40
2022-10-04T05:42:23.327Z,11.60
2022-10-04T05:44:54.851Z,11.90
2022-10-04T05:47:30.311Z,12.10
2022-10-04T05:50:01.275Z,12.20
2022-10-04T05:52:38.924Z,12.30
2022-10-04T05:56:05.685Z,12.50
2022-10-04T05:58:40.935Z,12.80
2022-10-04T06:01:47.623Z,13.10
2022-10-04T06:04:47.447Z,13.30
2022-10-04T06:07:41.567Z,13.20
2022-10-04T06:10:26.140Z,13.00
2022-10-04T06:13:29.137Z,12.80
2022-10-04T06:16:20.496Z,12.80
2022-10-04T06:18:52.582Z,12.80
2022-10-04T06:21:28.086Z,12.90
2022-10-04T06:24:03.505Z,13.10
2022-10-04T06:26:54.215Z,13.30
2022-10-04T06:29:38.232Z,13.60
2022-10-04T06:32:46.320Z,13.70
2022-10-04T06:35:35.159Z,13.70
2022-10-04T06:38:48.791Z,13.70
2022-10-04T06:41:42.859Z,13.70
2022-10-04T06:44:48.843Z,13.60
2022-10-04T06:47:49.691Z,13.60
2022-10-04T06:51:07.974Z,13.70
2022-10-04T06:54:14.159Z,13.80
2022-10-04T06:57:15.676Z,14.00
2022-10-04T07:00:29.270Z,13.90
2022-10-04T07:03:09.772Z,13.90
2022-10-04T07:05:48.557Z,13.90
2022-10-04T07:08:50.095Z,13.80
2022-10-04T07:11:44.040Z,13.60
2022-10-04T07:14:35.745Z,13.40
2022-10-04T07:17:15.377Z,13.30
2022-10-04T07:19:52.113Z,13.30
2022-10-04T07:22:47.755Z,13.50
2022-10-04T07:25:30.789Z,13.80
2022-10-04T07:28:27.545Z,14.00
2022-10-04T07:31:17.195Z,14.10
2022-10-04T07:33:56.246Z,14.20
2022-10-04T07:36:43.547Z,14.40
2022-10-04T07:39:30.763Z,14.50
2022-10-04T07:42:47.069Z,14.70
2022-10-04T07:45:30.077Z,14.90
2022-10-04T07:48:26.096Z,15.00
2022-10-04T07:51:17.737Z,15.00
2022-10-04T07:54:26.573Z,15.00
2022-10-04T07:57:35.493Z,15.20
2022-10-04T08:00:31.517Z,15.30
2022-10-04T08:03:21.872Z,15.40
2022-10-04T08:06:15.007Z,15.30
2022-10-04T08:09:17.227Z,15.50
2022-10-04T08:12:14.619Z,15.70
2022-10-04T08:15:08.969Z,15.70
2022-10-04T08:17:41.903Z,15.90
2022-10-04T08:21:05.366Z,16.10
2022-10-04T08:23:47.425Z,16.00
2022-10-04T08:26:54.460Z,16.00
2022-10-04T08:30:04.842Z,16.20
2022-10-04T08:33:17.101Z,16.30
2022-10-04T08:36:20.906Z,16.50
2022-10-04T08:38:58.742Z,16.50
2022-10-04T08:42:11.266Z,16.40
2022-10-04T08:45:08.001Z,16.30
2022-10-04T08:48:26.389Z,16.30
2022-10-04T08:51:38.979Z,16.20
2022-10-04T08:54:36.491Z,16.00
2022-10-04T08:57:16.030Z,16.00
2022-10-04T09:00:10.840Z,16.30
2022-10-04T09:03:05.161Z,16.50
2022-10-04T09:05:40.804Z,16.70
2022-10-04T09:08:47.494Z,16.70
2022-10-04T09:11:44.726Z,16.70
2022-10-04T09:14:38.932Z,17.00
2022-10-04T09:17:33.408Z,17.20
2022-10-04T09:20:38.639Z,16.50
2022-10-04T09:23:31.510Z,15.90
2022-10-04T09:26:21.112Z,15.60
2022-10-04T09:29:17.551Z,15.60
2022-10-04T09:32:01.948Z,15.30
2022-10-04T09:34:37.739Z,15.10
2022-10-04T09:37:52.012Z,15.20
2022-10-04T09:40:30.496Z,15.20
2022-10-04T09:43:42.444Z,15.40
2022-10-04T09:46:47.703Z,15.70
2022-10-04T09:50:02.792Z,16.00
2022-10-04T09:52:44.765Z,16.10
2022-10-04T09:55:20.687Z,16.50
2022-10-04T09:58:17.486Z,16.60
2022-10-04T10:00:51.751Z,16.30
2022-10-04T10:03:46.270Z,16.50
2022-10-04T10:06:53.800Z,16.70
2022-10-04T10:10:09.546Z,17.30
2022-10-04T10:13:42.987Z,17.90
2022-10-04T10:16:49.963Z,18.30
2022-10-04T10:20:16.902Z,18.70
2022-10-04T10:22:48.967Z,18.70
2022-10-04T10:25:25.341Z,18.40
2022-10-04T10:28:03.615Z,18.30
2022-10-04T10:30:59.087Z,18.50
2022-10-04T10:33:46.493Z,18.70
2022-10-04T10:36:38.710Z,18.80
2022-10-04T10:39:44.659Z,18.60
2022-10-04T10:42:19.967Z,18.20
2022-10-04T10:45:40.584Z,17.90
2022-10-04T10:48:18.561Z,17.40
2022-10-04T10:51:10.911Z,17.00
2022-10-04T10:54:07.936Z,16.80
2022-10-04T10:57:01.817Z,16.60
2022-10-04T11:00:08.485Z,16.60
2022-10-04T11:03:13.080Z,16.60
2022-10-04T11:06:32.381Z,16.50
2022-10-04T11:09:22.870Z,16.60
2022-10-04T11:12:24.735Z,16.80
2022-10-04T11:15:25.953Z,17.20
2022-10-04T11:18:45.265Z,17.50
2022-10-04T11:21:35.196Z,17.80
2022-10-04T11:25:01.168Z,17.90
2022-10-04T11:27:56.653Z,17.80
2022-10-04T11:30:55.067Z,17.80
2022-10-04T11:34:17.568Z,17.80
2022-10-04T11:37:21.566Z,17.90
2022-10-04T11:40:33.140Z,17.80
2022-10-04T11:43:20.086Z,17.80
2022-10-04T11:46:18.601Z,17.70
2022-10-04T11:49:25.087Z,17.70
2022-10-04T11:52:42.144Z,17.50
2022-10-04T11:56:19.110Z,17.00
2022-10-04T11:59:17.873Z,16.80
2022-10-04T12:02:20.676Z,16.70
2022-10-04T12:05:47.946Z,16.80
2022-10-04T12:08:44.436Z,17.00
2022-10-04T12:11:53.774Z,17.40
2022-10-04T12:14:58.037Z,17.80
2022-10-04T12:18:08.346Z,18.10
2022-10-04T12:21:16.734Z,18.20
2022-10-04T12:43:22.641Z,17.30
2022-10-04T12:46:24.177Z,17.00
2022-10-04T12:49:50.250Z,16.90
2022-10-04T12:53:09.251Z,16.80
2022-10-04T13:07:08.887Z,16.70
2022-10-04T13:10:23.712Z,16.70
2022-10-04T13:13:42.264Z,16.70
2022-10-04T13:19:33.068Z,17.10
2022-10-04T13:22:55.577Z,17.30
2022-10-04T13:26:28.401Z,17.30
2022-10-04T13:29:03.017Z,19.10
2022-10-04T13:32:28.170Z,18.80
2022-10-04T13:35:27.283Z,19.00
2022-10-04T13:38:32.527Z,18.60
2022-10-04T13:41:24.225Z,18.30
2022-10-04T13:44:26.471Z,18.00
2022-10-04T13:47:24.024Z,17.80
2022-10-04T13:50:15.560Z,17.50
2022-10-04T13:53:26.944Z,17.30
2022-10-04T13:56:37.999Z,17.20
2022-10-04T13:59:18.498Z,17.00
2022-10-04T14:02:29.961Z,16.80
2022-10-04T14:05:43.859Z,16.70
2022-10-04T14:08:33.414Z,16.70
2022-10-04T14:11:49.231Z,16.60
2022-10-04T14:15:00.270Z,16.60
2022-10-04T14:18:27.255Z,16.50
2022-10-04T14:21:19.184Z,16.50
2022-10-04T14:24:15.326Z,16.50
2022-10-04T14:27:27.907Z,16.50
2022-10-04T14:30:26.005Z,16.50
2022-10-04T14:33:19.633Z,16.40
2022-10-04T14:36:04.341Z,16.40
2022-10-04T14:39:14.122Z,16.30
2022-10-04T14:42:31.377Z,16.20
2022-10-04T14:45:28.362Z,16.20
2022-10-04T14:48:24.579Z,16.20
2022-10-04T14:51:32.390Z,16.20
2022-10-04T14:54:29.220Z,16.10
2022-10-04T14:57:08.685Z,16.00
2022-10-04T15:00:16.940Z,15.80
2022-10-04T15:03:40.773Z,15.70
2022-10-04T15:06:26.673Z,15.50
2022-10-04T15:09:26.571Z,15.40
2022-10-04T15:12:46.035Z,15.30
2022-10-04T15:15:59.024Z,15.20
2022-10-04T15:19:04.647Z,15.10
2022-10-04T15:21:49.090Z,15.10
2022-10-04T15:24:52.309Z,15.00
2022-10-04T15:27:33.929Z,15.00
2022-10-04T15:30:30.862Z,15.00
2022-10-04T15:33:36.254Z,15.00
2022-10-04T15:36:11.847Z,14.90
2022-10-04T15:39:04.108Z,14.90
2022-10-04T15:42:08.066Z,14.80
2022-10-04T15:44:55.497Z,14.70
2022-10-04T15:47:56.937Z,14.60
2022-10-04T15:51:17.484Z,14.40
2022-10-04T15:54:06.207Z,14.20
2022-10-04T15:56:45.813Z,14.10
2022-10-04T15:59:53.793Z,13.90
2022-10-04T16:03:17.839Z,13.70
2022-10-04T16:06:01.047Z,13.60
2022-10-04T16:09:17.564Z,13.40
2022-10-04T16:12:04.571Z,13.30
2022-10-04T16:14:57.090Z,13.30
2022-10-04T16:17:44.972Z,13.30
2022-10-04T16:20:23.274Z,13.10
2022-10-04T16:23:28.408Z,13.10
2022-10-04T16:26:34.998Z,13.00
2022-10-04T16:29:34.798Z,12.90
2022-10-04T16:32:19.333Z,12.80
2022-10-04T16:35:08.550Z,12.70
2022-10-04T16:38:19.866Z,12.60
2022-10-04T16:40:52.505Z,12.40
2022-10-04T16:43:32.847Z,12.30
2022-10-04T16:46:45.260Z,12.30
2022-10-04T16:49:31.391Z,12.10
2022-10-04T16:52:12.849Z,12.00
2022-10-04T16:55:25.257Z,11.90
2022-10-04T16:58:30.854Z,11.90
2022-10-04T17:01:40.409Z,11.70
2022-10-04T17:04:43.146Z,11.60
2022-10-04T17:07:53.024Z,11.50
2022-10-04T17:10:49.730Z,11.30
2022-10-04T17:13:31.541Z,11.20
2022-10-04T17:16:38.295Z,11.10
2022-10-04T17:19:52.375Z,11.00
2022-10-04T17:23:09.539Z,10.90
2022-10-04T17:26:03.563Z,10.80
2022-10-04T17:29:04.147Z,10.70
2022-10-04T17:32:12.387Z,10.60
2022-10-04T17:35:10.120Z,10.60
2022-10-04T17:38:07.668Z,10.60
2022-10-04T17:41:20.965Z,10.50
2022-10-04T17:44:38.843Z,10.40
2022-10-04T17:47:58.337Z,10.30
2022-10-04T17:50:55.905Z,10.20
2022-10-04T17:53:51.788Z,10.10
2022-10-04T17:56:52.603Z,9.90
2022-10-04T17:59:31.253Z,9.80
2022-10-04T18:02:11.854Z,9.80
2022-10-04T18:04:54.953Z,9.70
2022-10-04T18:07:38.009Z,9.70
2022-10-04T18:10:34.928Z,9.60
2022-10-04T18:13:34.269Z,9.50
2022-10-04T18:16:43.145Z,9.50
2022-10-04T18:19:34.545Z,9.50
2022-10-04T18:22:26.588Z,9.50
2022-10-04T18:25:23.454Z,9.40
2022-10-04T18:28:08.528Z,9.30
2022-10-04T18:30:49.117Z,9.30
2022-10-04T18:33:30.062Z,9.30
2022-10-04T18:36:31.307Z,9.20
2022-10-04T18:39:13.063Z,9.10
2022-10-04T18:42:01.287Z,9.00
2022-10-04T18:44:59.161Z,9.00
2022-10-04T18:47:42.541Z,9.00
2022-10-04T18:50:20.936Z,9.00
2022-10-04T18:53:31.391Z,8.90
2022-10-04T18:56:08.265Z,8.80
2022-10-04T18:59:25.974Z,8.70
2022-10-04T19:02:34.078Z,8.50
2022-10-04T19:05:19.641Z,8.40
2022-10-04T19:08:01.271Z,8.30
2022-10-04T19:10:42.180Z,8.30
2022-10-04T19:13:14.607Z,8.20
2022-10-04T19:16:11.628Z,8.10
2022-10-04T19:19:18.911Z,8.10
2022-10-04T19:22:27.747Z,8.10
2022-10-04T19:25:28.045Z,8.10
2022-10-04T19:28:07.901Z,8.10
2022-10-04T19:31:09.968Z,8.00
2022-10-04T19:34:10.777Z,7.90
2022-10-04T19:36:47.428Z,7.90
2022-10-04T19:39:41.718Z,7.90
2022-10-04T19:42:54.630Z,7.80
2022-10-04T19:46:02.760Z,7.70
2022-10-04T19:48:53.456Z,7.70
2022-10-04T19:51:51.146Z,7.60
2022-10-04T19:54:39.779Z,7.60
2022-10-04T19:57:15.574Z,7.50
